createdAt,value
2019-03-27T00:01:24.436Z,60.80
2019-03-27T00:03:50.664Z,60.80
2019-03-27T00:06:16.890Z,61.30
2019-03-27T00:08:43.151Z,61.10
2019-03-27T00:11:09.352Z,60.80
2019-03-27T00:13:35.589Z,60.70
2019-03-27T00:16:02.109Z,60.80
2019-03-27T00:18:28.353Z,61.20
2019-03-27T00:20:54.581Z,61.00
2019-03-27T00:23:20.793Z,60.50
2019-03-27T00:25:47.040Z,60.50
2019-03-27T00:28:13.267Z,60.50
2019-03-27T00:30:39.513Z,61.20
2019-03-27T00:33:05.737Z,61.20
2019-03-27T00:35:32.005Z,61.10
2019-03-27T00:37:58.246Z,61.10
2019-03-27T00:40:24.483Z,61.10
2019-03-27T00:42:50.706Z,61.80
2019-03-27T00:45:26.533Z,62.40
2019-03-27T00:47:45.300Z,62.70
2019-03-27T00:50:11.720Z,63.10
2019-03-27T00:52:37.992Z,63.10
2019-03-27T00:55:05.936Z,63.40
2019-03-27T00:57:32.172Z,64.10
2019-03-27T00:59:58.438Z,64.50
2019-03-27T01:02:24.708Z,64.80
2019-03-27T01:04:50.929Z,65.40
2019-03-27T01:07:17.144Z,65.60
2019-03-27T01:09:43.412Z,67.00
2019-03-27T01:12:09.654Z,67.60
2019-03-27T01:14:35.879Z,68.50
2019-03-27T01:17:02.206Z,68.50
2019-03-27T01:19:28.428Z,68.80
2019-03-27T01:21:54.650Z,69.80
2019-03-27T01:24:20.895Z,70.70
2019-03-27T01:26:47.200Z,70.90
2019-03-27T01:29:13.409Z,71.00
2019-03-27T01:31:39.645Z,70.90
2019-03-27T01:34:05.884Z,70.90
2019-03-27T01:36:32.126Z,71.20
2019-03-27T01:38:58.358Z,71.10
2019-03-27T01:41:24.567Z,71.60
2019-03-27T01:43:50.849Z,71.70
2019-03-27T01:46:17.157Z,71.50
2019-03-27T01:48:43.390Z,71.30
2019-03-27T01:51:09.602Z,71.40
2019-03-27T01:53:35.837Z,71.50
2019-03-27T01:56:02.059Z,71.90
2019-03-27T01:58:28.298Z,72.20
2019-03-27T02:00:54.631Z,72.00
2019-03-27T02:03:20.849Z,72.00
2019-03-27T02:05:47.073Z,72.40
2019-03-27T02:08:13.340Z,72.60
2019-03-27T02:10:39.553Z,72.60
2019-03-27T02:13:05.780Z,72.60
2019-03-27T02:15:32.021Z,72.90
2019-03-27T02:17:58.291Z,73.00
2019-03-27T02:20:24.546Z,73.20
2019-03-27T02:22:50.782Z,73.80
2019-03-27T02:25:17.151Z,73.60
2019-03-27T02:28:05.021Z,73.60
2019-03-27T02:30:31.238Z,73.70
2019-03-27T02:32:57.815Z,74.30
2019-03-27T02:35:24.050Z,74.50
2019-03-27T02:37:50.265Z,75.30
2019-03-27T02:40:16.533Z,75.30
2019-03-27T02:42:42.759Z,75.10
2019-03-27T02:45:09.172Z,75.30
2019-03-27T02:47:35.535Z,75.30
2019-03-27T02:50:04.181Z,75.30
2019-03-27T02:52:30.446Z,75.60
2019-03-27T02:54:56.675Z,75.60
2019-03-27T02:57:22.909Z,75.80
2019-03-27T02:59:49.135Z,75.90
2019-03-27T03:02:15.359Z,75.80
2019-03-27T03:04:41.588Z,76.10
2019-03-27T03:07:08.170Z,76.40
2019-03-27T03:09:34.443Z,76.50
2019-03-27T03:12:00.673Z,76.60
2019-03-27T03:14:26.900Z,76.70
2019-03-27T03:16:53.147Z,77.10
2019-03-27T03:19:19.356Z,77.00
2019-03-27T03:21:45.584Z,77.20
2019-03-27T03:24:12.120Z,77.80
2019-03-27T03:26:38.352Z,78.20
2019-03-27T03:29:04.584Z,78.40
2019-03-27T03:31:30.811Z,78.40
2019-03-27T03:33:57.160Z,78.30
2019-03-27T03:36:23.396Z,78.40
2019-03-27T03:38:49.630Z,78.30
2019-03-27T03:41:15.906Z,78.30
2019-03-27T03:43:42.155Z,78.70
2019-03-27T03:46:08.379Z,78.90
2019-03-27T03:48:34.624Z,78.90
2019-03-27T03:51:01.945Z,78.90
2019-03-27T03:53:28.704Z,79.00
2019-03-27T03:55:57.117Z,79.00
2019-03-27T03:58:24.980Z,78.90
2019-03-27T04:00:51.623Z,79.00
2019-03-27T04:03:18.455Z,79.20
2019-03-27T04:05:44.674Z,79.60
2019-03-27T04:08:10.941Z,79.60
2019-03-27T04:10:37.165Z,79.70
2019-03-27T04:13:03.384Z,80.30
2019-03-27T04:15:29.657Z,80.80
2019-03-27T04:17:55.885Z,81.10
2019-03-27T04:20:22.114Z,81.40
2019-03-27T04:22:48.336Z,81.60
2019-03-27T04:25:14.591Z,82.20
2019-03-27T04:27:40.853Z,82.20
2019-03-27T04:30:07.771Z,82.50
2019-03-27T04:32:34.055Z,82.40
2019-03-27T04:35:00.609Z,82.80
2019-03-27T04:37:26.899Z,82.90
2019-03-27T04:39:53.125Z,83.20
2019-03-27T04:42:19.356Z,83.40
2019-03-27T04:44:45.581Z,83.60
2019-03-27T04:47:11.818Z,83.80
2019-03-27T04:49:38.067Z,84.00
2019-03-27T04:52:04.329Z,84.20
2019-03-27T04:54:30.581Z,84.40
2019-03-27T04:56:56.820Z,84.70
2019-03-27T04:59:23.048Z,84.80
2019-03-27T05:01:49.278Z,84.70
2019-03-27T05:04:15.903Z,85.00
2019-03-27T05:06:42.192Z,85.20
2019-03-27T05:09:08.414Z,85.30
2019-03-27T05:11:34.652Z,85.30
2019-03-27T05:14:00.999Z,85.40
2019-03-27T05:16:27.255Z,86.10
2019-03-27T05:18:53.492Z,85.60
2019-03-27T05:21:19.735Z,85.90
2019-03-27T05:23:46.040Z,86.30
2019-03-27T05:26:12.271Z,86.30
2019-03-27T05:28:38.546Z,86.60
2019-03-27T05:31:05.006Z,86.90
2019-03-27T05:33:32.824Z,87.10
2019-03-27T05:35:59.101Z,87.30
2019-03-27T05:38:25.330Z,87.50
2019-03-27T05:40:51.599Z,87.50
2019-03-27T05:43:17.852Z,88.10
2019-03-27T05:45:44.077Z,87.40
2019-03-27T05:48:10.324Z,87.50
2019-03-27T05:50:36.779Z,87.40
2019-03-27T05:53:03.127Z,87.30
2019-03-27T05:55:29.354Z,87.10
2019-03-27T05:57:55.670Z,87.00
2019-03-27T06:00:21.889Z,87.00
2019-03-27T06:02:48.457Z,87.00
2019-03-27T06:05:14.677Z,87.20
2019-03-27T06:07:40.903Z,87.40
2019-03-27T06:10:07.444Z,87.40
2019-03-27T06:12:33.664Z,87.40
2019-03-27T06:14:59.922Z,87.20
2019-03-27T06:17:26.168Z,87.10
2019-03-27T06:19:52.399Z,87.00
2019-03-27T06:22:18.649Z,87.50
2019-03-27T06:24:45.008Z,86.80
2019-03-27T06:27:11.356Z,87.00
2019-03-27T06:29:37.583Z,87.00
2019-03-27T06:32:03.923Z,86.90
2019-03-27T06:34:31.615Z,87.00
2019-03-27T06:36:57.847Z,87.10
2019-03-27T06:39:24.068Z,87.10
2019-03-27T06:41:50.288Z,87.20
2019-03-27T06:44:16.499Z,87.20
2019-03-27T06:46:42.743Z,87.10
2019-03-27T06:49:09.037Z,87.10
2019-03-27T06:51:40.256Z,87.00
2019-03-27T06:54:03.367Z,86.80
2019-03-27T06:56:31.002Z,86.80
2019-03-27T06:58:57.255Z,86.70
2019-03-27T07:01:23.483Z,86.80
2019-03-27T07:03:49.711Z,86.80
2019-03-27T07:06:15.965Z,86.70
2019-03-27T07:08:42.206Z,86.90
2019-03-27T07:11:10.336Z,86.90
2019-03-27T07:13:36.557Z,87.10
2019-03-27T07:16:02.910Z,87.30
2019-03-27T07:18:39.449Z,87.10
2019-03-27T07:20:57.890Z,87.20
2019-03-27T07:23:24.681Z,87.20
2019-03-27T07:25:50.973Z,87.10
2019-03-27T07:28:17.181Z,86.80
2019-03-27T07:30:43.465Z,87.00
2019-03-27T07:33:09.667Z,87.00
2019-03-27T07:35:35.887Z,86.90
2019-03-27T07:38:02.145Z,86.70
2019-03-27T07:40:28.408Z,86.70
2019-03-27T07:42:54.729Z,86.70
2019-03-27T07:45:21.172Z,86.50
2019-03-27T07:47:48.258Z,86.70
2019-03-27T07:50:15.026Z,86.50
2019-03-27T07:52:41.434Z,86.50
2019-03-27T07:55:18.740Z,86.50
2019-03-27T07:57:36.241Z,86.70
2019-03-27T08:00:16.083Z,86.80
2019-03-27T08:02:42.523Z,86.90
2019-03-27T08:05:10.035Z,87.30
2019-03-27T08:07:36.323Z,87.00
2019-03-27T08:10:05.591Z,86.70
2019-03-27T08:12:31.864Z,86.50
2019-03-27T08:14:58.702Z,86.50
2019-03-27T08:17:24.976Z,86.40
2019-03-27T08:19:51.278Z,86.30
2019-03-27T08:22:20.571Z,86.30
2019-03-27T08:24:46.830Z,86.20
2019-03-27T08:27:16.321Z,86.00
2019-03-27T08:29:42.618Z,85.90
2019-03-27T08:32:10.954Z,85.80
2019-03-27T08:34:37.304Z,85.70
2019-03-27T08:37:03.553Z,85.40
2019-03-27T08:39:29.798Z,85.20
2019-03-27T08:41:56.044Z,85.20
2019-03-27T08:44:22.270Z,85.00
2019-03-27T08:46:48.908Z,84.80
2019-03-27T08:49:21.895Z,85.00
2019-03-27T08:51:43.446Z,85.00
2019-03-27T08:54:09.769Z,84.70
2019-03-27T08:56:35.992Z,84.70
2019-03-27T08:59:02.231Z,84.70
2019-03-27T09:01:28.607Z,84.70
2019-03-27T09:03:54.832Z,84.70
2019-03-27T09:06:33.146Z,84.60
2019-03-27T09:08:49.243Z,84.60
2019-03-27T09:11:15.469Z,84.90
2019-03-27T09:13:41.704Z,85.40
2019-03-27T09:16:07.942Z,85.60
2019-03-27T09:18:34.380Z,85.90
2019-03-27T09:21:00.679Z,85.90
2019-03-27T09:23:26.984Z,84.90
2019-03-27T09:25:53.241Z,85.20
2019-03-27T09:28:19.574Z,84.80
2019-03-27T09:30:45.827Z,84.80
2019-03-27T09:33:12.148Z,84.80
2019-03-27T09:35:38.492Z,84.30
2019-03-27T09:38:04.725Z,83.80
2019-03-27T09:40:31.004Z,83.00
2019-03-27T09:42:57.248Z,83.30
2019-03-27T09:45:23.478Z,83.30
2019-03-27T09:47:49.706Z,83.40
2019-03-27T09:50:16.035Z,84.60
2019-03-27T09:52:42.268Z,84.10
2019-03-27T09:55:08.811Z,84.20
2019-03-27T09:57:35.317Z,83.60
2019-03-27T10:00:05.583Z,80.40
2019-03-27T10:02:31.800Z,80.30
2019-03-27T10:05:00.929Z,79.00
2019-03-27T10:07:34.191Z,77.30
2019-03-27T10:10:00.643Z,78.80
2019-03-27T10:12:26.871Z,78.50
2019-03-27T10:14:53.151Z,76.50
2019-03-27T10:17:19.626Z,74.80
2019-03-27T10:19:45.964Z,76.80
2019-03-27T10:22:12.299Z,77.70
2019-03-27T10:24:38.700Z,74.90
2019-03-27T10:27:04.936Z,75.10
2019-03-27T10:29:31.186Z,74.50
2019-03-27T10:31:57.459Z,75.10
2019-03-27T10:34:23.696Z,74.80
2019-03-27T10:36:49.939Z,75.10
2019-03-27T10:39:16.166Z,73.10
2019-03-27T10:41:42.424Z,72.30
2019-03-27T10:44:10.853Z,73.40
2019-03-27T10:46:37.102Z,74.00
2019-03-27T10:49:04.566Z,73.60
2019-03-27T10:51:31.095Z,72.50
2019-03-27T10:53:57.335Z,73.20
2019-03-27T10:56:24.598Z,73.70
2019-03-27T10:58:50.842Z,72.40
2019-03-27T11:01:17.140Z,72.80
2019-03-27T11:03:43.375Z,73.70
2019-03-27T11:06:09.643Z,72.60
2019-03-27T11:08:35.852Z,72.30
2019-03-27T11:11:02.172Z,73.70
2019-03-27T11:13:28.394Z,74.00
2019-03-27T11:15:54.640Z,74.50
2019-03-27T11:18:21.164Z,73.80
2019-03-27T11:20:47.414Z,74.00
2019-03-27T11:23:13.690Z,73.90
2019-03-27T11:25:40.023Z,75.00
2019-03-27T11:28:06.273Z,76.50
2019-03-27T11:30:35.119Z,73.90
2019-03-27T11:33:01.373Z,73.60
2019-03-27T11:35:27.620Z,73.40
2019-03-27T11:37:53.848Z,73.40
2019-03-27T11:40:20.094Z,73.60
2019-03-27T11:42:46.329Z,71.70
2019-03-27T11:45:12.864Z,72.60
2019-03-27T11:47:39.075Z,71.70
2019-03-27T11:50:08.433Z,71.20
2019-03-27T11:52:34.760Z,71.60
2019-03-27T11:55:01.237Z,72.00
2019-03-27T11:57:27.516Z,72.50
2019-03-27T11:59:54.489Z,71.90
2019-03-27T12:02:21.039Z,72.00
2019-03-27T12:04:47.272Z,71.50
2019-03-27T12:07:13.520Z,70.00
2019-03-27T12:09:39.749Z,69.50
2019-03-27T12:12:06.113Z,68.80
2019-03-27T12:14:32.613Z,69.10
2019-03-27T12:16:58.855Z,68.50
2019-03-27T12:19:25.090Z,66.90
2019-03-27T12:21:54.570Z,67.80
2019-03-27T12:24:19.506Z,67.60
2019-03-27T12:26:45.744Z,67.70
2019-03-27T12:29:11.985Z,67.80
2019-03-27T12:31:39.356Z,67.50
2019-03-27T12:34:05.606Z,67.20
2019-03-27T12:36:31.826Z,66.80
2019-03-27T12:38:58.051Z,67.30
2019-03-27T12:41:24.287Z,67.00
2019-03-27T12:43:50.506Z,66.40
2019-03-27T12:46:16.734Z,67.60
2019-03-27T12:48:43.009Z,67.70
2019-03-27T12:51:12.979Z,66.20
2019-03-27T12:53:37.366Z,64.20
2019-03-27T12:56:03.704Z,65.60
2019-03-27T12:58:29.926Z,64.70
2019-03-27T13:00:56.174Z,64.80
2019-03-27T13:03:22.397Z,64.50
2019-03-27T13:05:48.714Z,64.10
2019-03-27T13:08:14.938Z,63.80
2019-03-27T13:10:41.170Z,66.00
2019-03-27T13:13:07.413Z,65.10
2019-03-27T13:15:33.732Z,63.60
2019-03-27T13:17:59.971Z,65.80
2019-03-27T13:20:26.225Z,66.60
2019-03-27T13:22:52.516Z,66.00
2019-03-27T13:25:18.952Z,65.60
2019-03-27T13:27:47.472Z,66.30
2019-03-27T13:30:14.169Z,65.90
2019-03-27T13:32:40.385Z,64.80
2019-03-27T13:35:07.229Z,65.00
2019-03-27T13:37:33.457Z,65.30
2019-03-27T13:40:00.139Z,64.90
2019-03-27T13:42:26.469Z,65.00
2019-03-27T13:44:52.687Z,63.30
2019-03-27T13:47:18.922Z,63.30
2019-03-27T13:49:45.141Z,63.40
2019-03-27T13:52:11.377Z,64.00
2019-03-27T13:54:37.612Z,64.20
2019-03-27T13:57:04.206Z,64.20
2019-03-27T13:59:30.424Z,64.30
2019-03-27T14:01:56.696Z,62.70
2019-03-27T14:04:23.171Z,62.60
2019-03-27T14:06:49.405Z,63.10
2019-03-27T14:09:16.469Z,63.20
2019-03-27T14:11:42.728Z,62.80
2019-03-27T14:14:11.570Z,62.70
2019-03-27T14:16:37.132Z,62.40
2019-03-27T14:19:03.459Z,61.40
2019-03-27T14:21:29.706Z,60.50
2019-03-27T14:23:55.924Z,61.30
2019-03-27T14:26:22.302Z,61.30
2019-03-27T14:28:48.615Z,61.10
2019-03-27T14:31:14.902Z,60.70
2019-03-27T14:33:41.152Z,61.50
2019-03-27T14:36:07.380Z,61.50
2019-03-27T14:38:33.606Z,61.70
2019-03-27T14:40:59.857Z,61.00
2019-03-27T14:43:27.148Z,62.40
2019-03-27T14:45:53.544Z,61.40
2019-03-27T14:48:19.838Z,61.60
2019-03-27T14:50:46.203Z,61.90
2019-03-27T14:53:12.868Z,62.20
2019-03-27T14:55:39.248Z,62.20
2019-03-27T14:58:05.477Z,62.20
2019-03-27T15:00:31.720Z,61.20
2019-03-27T15:02:57.946Z,61.00
2019-03-27T15:05:24.226Z,59.60
2019-03-27T15:07:50.623Z,60.00
2019-03-27T15:10:16.996Z,59.10
2019-03-27T15:12:43.328Z,59.40
2019-03-27T15:15:10.451Z,59.80
2019-03-27T15:17:37.292Z,59.80
2019-03-27T15:20:05.648Z,59.70
2019-03-27T15:22:31.903Z,59.60
2019-03-27T15:24:58.121Z,59.50
2019-03-27T15:27:24.355Z,59.60
2019-03-27T15:29:50.576Z,60.00
2019-03-27T15:32:16.821Z,60.20
2019-03-27T15:34:45.365Z,59.60
2019-03-27T15:37:11.573Z,59.50
2019-03-27T15:39:37.843Z,60.00
2019-03-27T15:42:04.069Z,60.60
2019-03-27T15:44:30.297Z,60.90
2019-03-27T15:46:56.728Z,60.80
2019-03-27T15:49:23.058Z,60.20
2019-03-27T15:51:49.276Z,59.00
2019-03-27T15:54:15.527Z,58.90
2019-03-27T15:56:41.788Z,59.10
2019-03-27T15:59:08.037Z,59.60
2019-03-27T16:01:34.470Z,60.00
2019-03-27T16:04:00.729Z,60.10
2019-03-27T16:06:26.969Z,59.60
2019-03-27T16:08:53.193Z,59.70
2019-03-27T16:11:19.420Z,60.00
2019-03-27T16:13:45.723Z,59.60
2019-03-27T16:16:12.042Z,59.80
2019-03-27T16:18:38.303Z,60.00
2019-03-27T16:21:04.650Z,60.50
2019-03-27T16:23:32.390Z,59.90
2019-03-27T16:25:58.719Z,59.30
2019-03-27T16:28:25.185Z,58.70
2019-03-27T16:31:07.116Z,59.40
2019-03-27T16:36:56.510Z,59.50
2019-03-27T16:39:27.284Z,59.20
2019-03-27T16:41:53.710Z,59.90
2019-03-27T16:44:20.337Z,59.70
2019-03-27T16:46:46.909Z,59.20
2019-03-27T16:49:13.271Z,59.00
2019-03-27T16:51:39.856Z,59.70
2019-03-27T16:54:07.029Z,58.90
2019-03-27T16:56:33.261Z,60.00
2019-03-27T16:59:00.036Z,60.60
2019-03-27T17:01:26.409Z,60.80
2019-03-27T17:03:52.711Z,59.90
2019-03-27T17:06:20.886Z,60.00
2019-03-27T17:08:47.125Z,60.30
2019-03-27T17:11:13.355Z,59.90
2019-03-27T17:13:41.536Z,60.10
2019-03-27T17:16:10.025Z,60.50
2019-03-27T17:18:36.699Z,60.60
2019-03-27T17:21:03.065Z,60.70
2019-03-27T17:23:29.539Z,59.80
2019-03-27T17:25:55.843Z,60.50
2019-03-27T17:28:22.206Z,60.30
2019-03-27T17:30:48.653Z,60.20
2019-03-27T17:33:15.045Z,60.30
2019-03-27T17:35:41.420Z,60.60
2019-03-27T17:38:10.846Z,61.30
2019-03-27T17:40:35.862Z,61.40
2019-03-27T17:43:02.135Z,61.40
2019-03-27T17:45:28.475Z,62.00
2019-03-27T17:47:54.729Z,62.70
2019-03-27T17:50:21.230Z,62.30
2019-03-27T17:52:47.556Z,62.00
2019-03-27T17:55:13.936Z,61.90
2019-03-27T17:57:40.226Z,62.10
2019-03-27T18:00:09.487Z,62.90
2019-03-27T18:02:35.821Z,62.80
2019-03-27T18:05:05.406Z,63.40
2019-03-27T18:07:31.649Z,63.80
2019-03-27T18:09:57.895Z,63.90
2019-03-27T18:12:24.215Z,63.90
2019-03-27T18:14:50.475Z,64.00
2019-03-27T18:17:16.766Z,64.10
2019-03-27T18:19:43.015Z,64.20
2019-03-27T18:22:09.295Z,64.00
2019-03-27T18:24:35.557Z,64.10
2019-03-27T18:27:01.784Z,64.30
2019-03-27T18:29:29.473Z,64.30
2019-03-27T18:31:55.772Z,64.60
2019-03-27T18:34:22.016Z,64.80
2019-03-27T18:36:48.289Z,65.30
2019-03-27T18:39:14.514Z,65.60
2019-03-27T18:41:40.900Z,65.40
2019-03-27T18:44:07.279Z,64.10
2019-03-27T18:46:33.753Z,64.30
2019-03-27T18:49:00.144Z,64.90
2019-03-27T18:51:26.419Z,65.20
2019-03-27T18:53:59.461Z,64.50
2019-03-27T18:56:20.987Z,64.80
2019-03-27T18:58:47.972Z,64.70
2019-03-27T19:01:14.571Z,64.40
2019-03-27T19:03:41.018Z,65.10
2019-03-27T19:06:07.917Z,65.00
2019-03-27T19:08:34.333Z,64.90
2019-03-27T19:11:01.373Z,65.40
2019-03-27T19:13:28.389Z,65.80
2019-03-27T19:15:56.338Z,66.30
2019-03-27T19:18:23.703Z,66.70
2019-03-27T19:20:50.886Z,67.60
2019-03-27T19:23:18.146Z,68.20
2019-03-27T19:25:45.965Z,68.80
2019-03-27T19:28:14.364Z,68.80
2019-03-27T19:30:42.318Z,68.80
2019-03-27T19:33:10.287Z,68.60
2019-03-27T19:35:38.169Z,68.50
2019-03-27T19:38:06.773Z,68.50
2019-03-27T19:40:34.667Z,68.50
2019-03-27T19:43:02.642Z,68.80
2019-03-27T19:45:30.882Z,69.20
2019-03-27T19:48:04.828Z,69.20
2019-03-27T19:50:35.047Z,69.30
2019-03-27T19:53:05.450Z,69.70
2019-03-27T19:55:36.676Z,70.00
2019-03-27T20:01:02.483Z,70.30
2019-03-27T20:03:34.819Z,70.40
2019-03-27T20:06:03.413Z,70.30
2019-03-27T20:08:31.381Z,70.20
2019-03-27T20:10:59.469Z,70.00
2019-03-27T20:13:28.055Z,69.00
2019-03-27T20:15:56.519Z,68.80
2019-03-27T20:18:24.670Z,68.30
2019-03-27T20:21:44.379Z,67.70
2019-03-27T20:27:04.958Z,67.90
2019-03-27T20:29:33.650Z,67.90
2019-03-27T20:32:03.716Z,67.90
2019-03-27T20:34:31.801Z,68.00
2019-03-27T20:36:59.797Z,68.10
2019-03-27T20:39:27.824Z,68.30
2019-03-27T20:41:55.772Z,68.70
2019-03-27T20:44:23.984Z,69.10
2019-03-27T20:46:51.885Z,69.50
2019-03-27T20:49:19.969Z,69.90
2019-03-27T20:51:47.876Z,70.20
2019-03-27T20:54:15.641Z,70.70
2019-03-27T20:56:49.534Z,71.20
2019-03-27T20:59:18.484Z,71.40
2019-03-27T21:01:51.623Z,71.50
2019-03-27T21:04:20.297Z,71.60
2019-03-27T21:09:36.279Z,71.50
2019-03-27T21:12:07.012Z,72.00
2019-03-27T21:14:34.680Z,72.00
2019-03-27T21:17:01.898Z,71.90
2019-03-27T21:19:29.199Z,72.10
2019-03-27T21:21:56.200Z,72.40
2019-03-27T21:24:23.226Z,72.60
2019-03-27T21:26:50.053Z,72.80
2019-03-27T21:29:16.683Z,72.60
2019-03-27T21:31:43.423Z,73.40
2019-03-27T21:34:09.805Z,72.80
2019-03-27T21:36:36.046Z,72.80
2019-03-27T21:39:05.467Z,72.50
2019-03-27T21:41:31.710Z,72.60
2019-03-27T21:43:57.947Z,72.70
2019-03-27T21:46:24.259Z,73.00
2019-03-27T21:48:50.434Z,73.30
2019-03-27T21:51:16.707Z,73.50
2019-03-27T21:53:42.946Z,73.60
2019-03-27T21:56:09.219Z,73.60
2019-03-27T21:58:35.452Z,73.60
2019-03-27T22:01:01.833Z,73.40
2019-03-27T22:03:28.070Z,73.30
2019-03-27T22:05:54.419Z,73.40
2019-03-27T22:08:20.806Z,73.70
2019-03-27T22:10:47.046Z,74.20
2019-03-27T22:13:13.286Z,74.20
2019-03-27T22:15:39.635Z,74.60
2019-03-27T22:18:05.991Z,75.00
2019-03-27T22:20:32.300Z,75.00
2019-03-27T22:22:58.850Z,75.00
2019-03-27T22:25:35.181Z,75.10
2019-03-27T22:27:53.330Z,74.90
2019-03-27T22:30:19.616Z,74.50
2019-03-27T22:32:45.843Z,74.10
2019-03-27T22:35:12.554Z,73.80
2019-03-27T22:37:38.797Z,73.80
2019-03-27T22:40:06.402Z,74.20
2019-03-27T22:42:33.247Z,74.10
2019-03-27T22:44:59.489Z,74.20
2019-03-27T22:47:25.988Z,74.20
2019-03-27T22:49:52.254Z,74.70
2019-03-27T22:52:18.573Z,74.00
2019-03-27T22:54:44.813Z,74.10
2019-03-27T22:57:11.082Z,74.00
2019-03-27T22:59:37.630Z,74.10
2019-03-27T23:02:04.383Z,74.10
2019-03-27T23:04:30.623Z,74.50
2019-03-27T23:06:56.848Z,74.90
2019-03-27T23:09:23.286Z,75.00
2019-03-27T23:11:49.527Z,75.00
2019-03-27T23:14:15.749Z,75.00
2019-03-27T23:16:42.209Z,75.10
2019-03-27T23:19:08.584Z,75.20
2019-03-27T23:21:34.839Z,75.60
2019-03-27T23:24:01.164Z,75.80
2019-03-27T23:26:27.505Z,75.90
2019-03-27T23:28:53.794Z,76.30
2019-03-27T23:31:19.981Z,76.50
2019-03-27T23:33:46.759Z,76.50
2019-03-27T23:36:13.383Z,76.30
2019-03-27T23:38:39.824Z,76.30
2019-03-27T23:41:06.336Z,76.10
2019-03-27T23:43:32.659Z,76.10
2019-03-27T23:45:59.092Z,76.40
2019-03-27T23:48:25.341Z,76.40
2019-03-27T23:50:51.607Z,76.30
2019-03-27T23:53:17.850Z,76.30
2019-03-27T23:55:44.079Z,76.20
2019-03-27T23:58:10.339Z,76.20
